createdAt,value
2022-08-24T00:00:37.612Z,20.10
2022-08-24T00:03:04.691Z,20.10
2022-08-24T00:05:31.690Z,20.10
2022-08-24T00:07:58.627Z,20.00
2022-08-24T00:10:27.089Z,20.00
2022-08-24T00:12:53.989Z,19.90
2022-08-24T00:15:21.114Z,19.80
2022-08-24T00:17:48.117Z,19.80
2022-08-24T00:20:15.079Z,19.70
2022-08-24T00:22:42.499Z,19.80
2022-08-24T00:25:11.461Z,19.90
2022-08-24T00:27:41.927Z,20.00
2022-08-24T00:30:12.511Z,20.10
2022-08-24T00:32:39.509Z,20.20
2022-08-24T00:35:08.155Z,20.20
2022-08-24T00:37:35.385Z,20.30
2022-08-24T00:40:02.823Z,20.30
2022-08-24T00:42:29.770Z,20.40
2022-08-24T00:44:58.365Z,20.40
2022-08-24T00:47:31.677Z,20.40
2022-08-24T00:50:01.320Z,20.30
2022-08-24T00:52:33.344Z,20.30
2022-08-24T00:55:05.974Z,20.20
2022-08-24T00:57:38.694Z,20.10
2022-08-24T01:00:11.309Z,20.00
2022-08-24T01:02:44.278Z,20.00
2022-08-24T01:05:12.709Z,20.00
2022-08-24T01:07:40.792Z,20.00
2022-08-24T01:10:11.052Z,20.00
2022-08-24T01:12:42.134Z,20.00
2022-08-24T01:15:22.751Z,20.00
2022-08-24T01:18:08.976Z,20.00
2022-08-24T01:20:36.673Z,19.90
2022-08-24T01:23:08.380Z,19.90
2022-08-24T01:25:39.047Z,19.80
2022-08-24T01:28:11.739Z,19.80
2022-08-24T01:30:38.735Z,19.70
2022-08-24T01:33:08.443Z,19.70
2022-08-24T01:35:37.407Z,19.60
2022-08-24T01:38:10.442Z,19.50
2022-08-24T01:40:43.830Z,19.50
2022-08-24T01:43:12.704Z,19.40
2022-08-24T01:45:40.119Z,19.30
2022-08-24T01:48:07.403Z,19.20
2022-08-24T01:50:34.939Z,19.10
2022-08-24T01:53:05.892Z,19.10
2022-08-24T01:55:33.639Z,19.10
2022-08-24T01:58:02.873Z,19.20
2022-08-24T02:00:30.712Z,19.20
2022-08-24T02:02:57.787Z,19.10
2022-08-24T02:05:25.704Z,19.10
2022-08-24T02:07:52.817Z,19.00
2022-08-24T02:10:21.677Z,19.00
2022-08-24T02:12:57.918Z,18.90
2022-08-24T02:15:32.959Z,19.00
2022-08-24T02:18:01.029Z,19.00
2022-08-24T02:20:28.711Z,18.90
2022-08-24T02:22:57.298Z,19.00
2022-08-24T02:25:26.076Z,19.00
2022-08-24T02:27:53.033Z,19.00
2022-08-24T02:30:20.176Z,19.00
2022-08-24T02:32:48.880Z,19.00
2022-08-24T02:35:17.293Z,18.90
2022-08-24T02:37:44.225Z,18.90
2022-08-24T02:40:13.937Z,18.90
2022-08-24T02:42:41.921Z,18.90
2022-08-24T02:45:10.125Z,19.00
2022-08-24T02:47:39.469Z,19.00
2022-08-24T02:50:12.816Z,19.00
2022-08-24T02:52:40.505Z,19.00
2022-08-24T02:55:10.064Z,19.00
2022-08-24T02:57:38.716Z,19.00
2022-08-24T03:00:10.485Z,18.90
2022-08-24T03:02:39.773Z,18.90
2022-08-24T03:05:10.163Z,18.80
2022-08-24T03:07:37.983Z,18.80
2022-08-24T03:10:07.209Z,18.80
2022-08-24T03:12:34.790Z,18.80
2022-08-24T03:15:03.323Z,18.70
2022-08-24T03:17:33.762Z,18.80
2022-08-24T03:20:01.537Z,18.70
2022-08-24T03:22:30.741Z,18.60
2022-08-24T03:24:57.796Z,18.70
2022-08-24T03:27:25.349Z,18.60
2022-08-24T03:29:52.609Z,18.60
2022-08-24T03:32:19.786Z,18.50
2022-08-24T03:34:46.876Z,18.30
2022-08-24T03:37:13.811Z,18.20
2022-08-24T03:39:42.324Z,18.10
2022-08-24T03:42:09.358Z,18.10
2022-08-24T03:44:36.930Z,17.90
2022-08-24T03:47:04.108Z,17.90
2022-08-24T03:49:31.554Z,17.90
2022-08-24T03:52:00.164Z,17.80
2022-08-24T03:54:27.322Z,17.70
2022-08-24T03:56:56.837Z,17.80
2022-08-24T03:59:25.359Z,17.80
2022-08-24T04:01:56.183Z,17.80
2022-08-24T04:04:24.068Z,17.80
2022-08-24T04:06:51.227Z,17.80
2022-08-24T04:09:19.403Z,17.90
2022-08-24T04:11:48.666Z,17.90
2022-08-24T04:14:26.970Z,18.00
2022-08-24T04:17:00.852Z,18.00
2022-08-24T04:19:34.936Z,18.00
2022-08-24T04:22:02.002Z,18.00
2022-08-24T04:24:30.146Z,17.90
2022-08-24T04:26:57.177Z,17.70
2022-08-24T04:29:27.390Z,17.60
2022-08-24T04:31:55.325Z,17.50
2022-08-24T04:34:23.171Z,17.50
2022-08-24T04:36:50.687Z,17.40
2022-08-24T04:39:18.180Z,17.40
2022-08-24T04:42:07.213Z,17.30
2022-08-24T04:44:40.322Z,17.30
2022-08-24T04:47:08.781Z,17.30
2022-08-24T04:49:38.203Z,17.30
2022-08-24T04:52:08.109Z,17.30
2022-08-24T04:54:35.252Z,17.30
2022-08-24T04:57:07.337Z,17.30
2022-08-24T04:59:34.277Z,17.30
2022-08-24T05:02:03.095Z,17.40
2022-08-24T05:04:30.046Z,17.40
2022-08-24T05:06:58.684Z,17.40
2022-08-24T05:09:25.599Z,17.40
2022-08-24T05:11:53.852Z,17.40
2022-08-24T05:14:28.632Z,17.40
2022-08-24T05:16:56.226Z,17.50
2022-08-24T05:19:24.741Z,17.50
2022-08-24T05:21:52.134Z,17.50
2022-08-24T05:24:19.651Z,17.50
2022-08-24T05:26:47.175Z,17.50
2022-08-24T05:29:15.135Z,17.50
2022-08-24T05:31:47.544Z,17.60
2022-08-24T05:34:15.143Z,17.60
2022-08-24T05:36:43.951Z,17.60
2022-08-24T05:39:31.082Z,17.60
2022-08-24T05:41:59.874Z,17.70
2022-08-24T05:44:31.502Z,17.70
2022-08-24T05:47:02.854Z,17.70
2022-08-24T05:49:31.082Z,17.80
2022-08-24T05:52:00.139Z,17.80
2022-08-24T05:54:27.179Z,17.90
2022-08-24T05:57:05.268Z,18.00
2022-08-24T05:59:48.337Z,18.10
2022-08-24T06:02:19.265Z,18.20
2022-08-24T06:04:46.420Z,18.30
2022-08-24T06:07:16.491Z,18.30
2022-08-24T06:09:48.931Z,18.40
2022-08-24T06:12:16.406Z,18.40
2022-08-24T06:14:47.465Z,18.50
2022-08-24T06:17:18.668Z,18.60
2022-08-24T06:19:45.875Z,18.60
2022-08-24T06:22:14.307Z,18.70
2022-08-24T06:25:11.137Z,18.70
2022-08-24T06:27:41.556Z,18.80
2022-08-24T06:30:10.417Z,18.90
2022-08-24T06:32:58.873Z,19.00
2022-08-24T06:35:43.557Z,19.10
2022-08-24T06:38:14.531Z,19.20
2022-08-24T06:40:42.868Z,19.20
2022-08-24T06:43:11.053Z,19.30
2022-08-24T06:45:45.603Z,19.30
2022-08-24T06:48:16.347Z,19.40
2022-08-24T06:50:45.048Z,19.40
2022-08-24T06:53:14.846Z,19.50
2022-08-24T06:55:47.076Z,19.60
2022-08-24T06:58:14.397Z,19.70
2022-08-24T07:00:41.836Z,19.90
2022-08-24T07:03:08.811Z,20.00
2022-08-24T07:05:39.701Z,20.10
2022-08-24T07:08:19.256Z,20.20
2022-08-24T07:10:48.052Z,20.30
2022-08-24T07:13:15.366Z,20.40
2022-08-24T07:15:42.586Z,20.50
2022-08-24T07:18:14.588Z,20.60
2022-08-24T07:20:46.013Z,20.70
2022-08-24T07:23:19.365Z,20.80
2022-08-24T07:25:52.161Z,20.90
2022-08-24T07:28:27.858Z,21.00
2022-08-24T07:30:58.958Z,21.10
2022-08-24T07:33:27.175Z,21.20
2022-08-24T07:35:55.116Z,21.30
2022-08-24T07:38:23.365Z,21.40
2022-08-24T07:43:42.971Z,21.60
2022-08-24T07:46:10.742Z,21.80
2022-08-24T07:48:37.843Z,21.90
2022-08-24T07:51:08.082Z,22.00
2022-08-24T07:53:52.670Z,22.10
2022-08-24T07:56:22.106Z,22.20
2022-08-24T07:58:49.923Z,22.30
2022-08-24T08:01:22.352Z,22.30
2022-08-24T08:03:50.407Z,22.40
2022-08-24T08:06:19.116Z,22.50
2022-08-24T08:08:48.255Z,22.60
2022-08-24T08:11:15.208Z,22.70
2022-08-24T08:16:16.022Z,22.80
2022-08-24T08:18:43.318Z,23.00
2022-08-24T08:21:32.742Z,23.10
2022-08-24T08:24:20.542Z,23.20
2022-08-24T08:26:57.638Z,23.30
2022-08-24T08:29:31.318Z,23.50
2022-08-24T08:31:58.398Z,23.50
2022-08-24T08:34:26.368Z,23.70
2022-08-24T08:36:56.399Z,23.80
2022-08-24T08:39:25.767Z,23.90
2022-08-24T08:42:29.677Z,23.90
2022-08-24T08:45:19.303Z,24.10
2022-08-24T08:48:17.251Z,24.30
2022-08-24T08:51:19.127Z,24.50
2022-08-24T08:54:12.335Z,24.70
2022-08-24T08:56:49.680Z,24.90
2022-08-24T08:59:28.628Z,25.20
2022-08-24T09:02:09.071Z,25.40
2022-08-24T09:04:56.309Z,25.70
2022-08-24T09:07:40.392Z,26.00
2022-08-24T09:10:35.549Z,26.20
2022-08-24T09:13:12.419Z,26.70
2022-08-24T09:15:59.102Z,27.10
2022-08-24T09:18:41.374Z,28.40
2022-08-24T09:21:25.895Z,30.70
2022-08-24T09:24:01.362Z,32.80
2022-08-24T09:26:31.088Z,34.40
2022-08-24T09:29:12.682Z,35.60
2022-08-24T09:31:51.937Z,36.60
2022-08-24T09:34:33.328Z,37.00
2022-08-24T09:37:16.464Z,37.40
2022-08-24T09:39:59.981Z,38.00
2022-08-24T09:43:19.898Z,38.40
2022-08-24T09:46:12.640Z,38.20
2022-08-24T09:49:13.610Z,37.80
2022-08-24T09:52:09.207Z,37.30
2022-08-24T09:54:59.583Z,37.00
2022-08-24T09:57:59.883Z,36.80
2022-08-24T10:00:34.979Z,36.70
2022-08-24T10:03:13.482Z,36.70
2022-08-24T10:06:10.957Z,36.00
2022-08-24T10:08:55.184Z,35.70
2022-08-24T10:11:30.472Z,35.40
2022-08-24T10:14:07.302Z,35.50
2022-08-24T10:16:44.489Z,35.60
2022-08-24T10:19:37.579Z,35.80
2022-08-24T10:22:16.422Z,35.80
2022-08-24T10:25:02.668Z,35.20
2022-08-24T10:28:00.766Z,35.10
2022-08-24T10:30:55.132Z,35.20
2022-08-24T10:33:25.211Z,35.40
2022-08-24T10:36:21.202Z,35.70
2022-08-24T10:39:09.070Z,36.00
2022-08-24T10:42:37.480Z,36.30
2022-08-24T10:45:42.581Z,36.50
2022-08-24T10:48:47.980Z,36.90
2022-08-24T10:51:29.410Z,37.10
2022-08-24T10:53:58.802Z,37.30
2022-08-24T10:56:37.783Z,37.10
2022-08-24T10:59:17.531Z,37.10
2022-08-24T11:04:39.498Z,37.10
2022-08-24T11:07:17.646Z,37.00
2022-08-24T11:09:48.848Z,36.90
2022-08-24T11:12:23.739Z,36.80
2022-08-24T11:14:52.460Z,36.70
2022-08-24T11:17:21.101Z,36.30
2022-08-24T11:19:50.451Z,35.90
2022-08-24T11:22:39.478Z,35.60
2022-08-24T11:25:13.483Z,35.50
2022-08-24T11:27:43.494Z,35.60
2022-08-24T11:30:15.139Z,35.60
2022-08-24T11:32:45.865Z,35.70
2022-08-24T11:35:22.253Z,35.30
2022-08-24T11:37:51.785Z,34.90
2022-08-24T11:40:20.378Z,34.70
2022-08-24T11:43:13.348Z,34.90
2022-08-24T11:45:45.635Z,35.10
2022-08-24T11:48:29.599Z,35.00
2022-08-24T11:51:01.887Z,34.80
2022-08-24T11:56:25.666Z,34.90
2022-08-24T11:58:57.877Z,35.00
2022-08-24T12:01:31.296Z,35.10
2022-08-24T12:04:19.889Z,35.00
2022-08-24T12:06:56.225Z,35.40
2022-08-24T12:09:39.494Z,35.70
2022-08-24T12:12:13.670Z,35.50
2022-08-24T12:14:46.581Z,35.40
2022-08-24T12:17:18.739Z,35.50
2022-08-24T12:19:48.967Z,35.60
2022-08-24T12:22:20.021Z,35.90
2022-08-24T12:24:50.088Z,36.10
2022-08-24T12:27:20.621Z,36.10
2022-08-24T12:29:53.386Z,36.30
2022-08-24T12:32:24.223Z,36.50
2022-08-24T12:34:58.506Z,36.70
2022-08-24T12:37:32.651Z,36.70
2022-08-24T12:40:08.740Z,36.80
2022-08-24T12:42:49.864Z,36.90
2022-08-24T12:45:20.779Z,36.80
2022-08-24T12:47:52.399Z,36.40
2022-08-24T12:50:26.509Z,36.30
2022-08-24T12:53:24.485Z,36.30
2022-08-24T12:56:20.594Z,36.60
2022-08-24T12:58:58.465Z,36.70
2022-08-24T13:01:29.486Z,36.50
2022-08-24T13:04:07.344Z,36.30
2022-08-24T13:06:45.627Z,36.20
2022-08-24T13:09:28.617Z,36.00
2022-08-24T13:11:56.842Z,35.60
2022-08-24T13:14:26.305Z,35.80
2022-08-24T13:17:10.170Z,36.10
2022-08-24T13:19:40.893Z,36.40
2022-08-24T13:22:47.123Z,36.70
2022-08-24T13:25:50.975Z,36.90
2022-08-24T13:28:42.980Z,36.80
2022-08-24T13:31:22.032Z,36.90
2022-08-24T13:33:52.914Z,36.80
2022-08-24T13:36:54.720Z,36.90
2022-08-24T13:39:57.184Z,37.00
2022-08-24T13:42:50.233Z,37.20
2022-08-24T13:45:26.075Z,37.50
2022-08-24T13:48:04.507Z,37.70
2022-08-24T13:50:38.858Z,37.90
2022-08-24T13:53:34.841Z,38.00
2022-08-24T13:56:37.356Z,37.90
2022-08-24T13:59:11.256Z,37.70
2022-08-24T14:01:54.891Z,37.80
2022-08-24T14:04:45.102Z,37.80
2022-08-24T14:07:18.632Z,37.80
2022-08-24T14:09:58.752Z,37.70
2022-08-24T14:12:54.055Z,37.80
2022-08-24T14:15:31.920Z,37.70
2022-08-24T14:18:12.488Z,37.00
2022-08-24T14:21:08.716Z,36.30
2022-08-24T14:23:52.265Z,35.70
2022-08-24T14:27:05.185Z,35.40
2022-08-24T14:29:35.323Z,35.00
2022-08-24T14:32:32.130Z,34.20
2022-08-24T14:35:23.041Z,34.00
2022-08-24T14:38:03.564Z,33.90
2022-08-24T14:40:35.000Z,33.80
2022-08-24T14:43:21.963Z,33.90
2022-08-24T14:45:55.950Z,34.10
2022-08-24T14:48:32.480Z,34.20
2022-08-24T14:51:10.584Z,34.30
2022-08-24T14:53:59.721Z,34.40
2022-08-24T14:56:48.017Z,34.30
2022-08-24T14:59:30.605Z,34.30
2022-08-24T15:02:19.900Z,34.40
2022-08-24T15:04:48.430Z,34.40
2022-08-24T15:07:26.482Z,34.10
2022-08-24T15:09:55.685Z,34.10
2022-08-24T15:12:35.933Z,33.80
2022-08-24T15:15:09.804Z,33.70
2022-08-24T15:17:49.130Z,33.50
2022-08-24T15:20:19.871Z,33.50
2022-08-24T15:22:55.311Z,33.50
2022-08-24T15:25:33.902Z,33.50
2022-08-24T15:28:09.741Z,33.40
2022-08-24T15:30:39.954Z,33.40
2022-08-24T15:33:11.515Z,33.50
2022-08-24T15:35:40.538Z,33.50
2022-08-24T15:38:22.305Z,33.40
2022-08-24T15:40:52.702Z,33.10
2022-08-24T15:43:19.904Z,32.80
2022-08-24T15:45:51.216Z,32.40
2022-08-24T15:48:23.984Z,32.30
2022-08-24T15:50:52.929Z,32.30
2022-08-24T15:53:35.167Z,32.30
2022-08-24T15:56:27.242Z,32.30
2022-08-24T15:58:54.509Z,32.20
2022-08-24T16:01:43.247Z,31.90
2022-08-24T16:04:35.556Z,31.60
2022-08-24T16:07:02.834Z,31.50
2022-08-24T16:09:38.161Z,31.50
2022-08-24T16:12:09.431Z,31.40
2022-08-24T16:14:39.420Z,31.40
2022-08-24T16:17:27.610Z,31.40
2022-08-24T16:19:57.547Z,31.30
2022-08-24T16:22:29.755Z,31.20
2022-08-24T16:25:17.499Z,30.90
2022-08-24T16:28:10.456Z,30.60
2022-08-24T16:30:47.969Z,30.50
2022-08-24T16:33:46.116Z,30.40
2022-08-24T16:36:15.730Z,30.30
2022-08-24T16:38:47.166Z,30.30
2022-08-24T16:41:18.000Z,30.20
2022-08-24T16:43:45.878Z,30.10
2022-08-24T16:46:18.181Z,30.00
2022-08-24T16:48:45.151Z,30.00
2022-08-24T16:51:12.034Z,29.80
2022-08-24T16:53:38.953Z,29.70
2022-08-24T16:56:08.736Z,29.60
2022-08-24T16:58:37.378Z,29.50
2022-08-24T17:01:05.458Z,29.40
2022-08-24T17:03:32.959Z,29.20
2022-08-24T17:06:00.381Z,29.10
2022-08-24T17:08:28.964Z,29.00
2022-08-24T17:10:56.499Z,28.90
2022-08-24T17:13:48.839Z,28.80
2022-08-24T17:16:15.510Z,28.80
2022-08-24T17:18:43.218Z,28.70
2022-08-24T17:21:10.277Z,28.60
2022-08-24T17:23:38.105Z,28.50
2022-08-24T17:26:10.549Z,28.50
2022-08-24T17:28:50.557Z,28.40
2022-08-24T17:31:19.808Z,28.30
2022-08-24T17:33:49.383Z,28.20
2022-08-24T17:36:18.468Z,28.20
2022-08-24T17:38:55.083Z,28.10
2022-08-24T17:41:23.766Z,28.00
2022-08-24T17:43:50.942Z,28.00
2022-08-24T17:46:20.064Z,27.90
2022-08-24T17:48:47.793Z,27.90
2022-08-24T17:51:15.190Z,27.80
2022-08-24T17:53:42.213Z,27.80
2022-08-24T17:56:12.707Z,27.70
2022-08-24T17:58:58.757Z,27.60
2022-08-24T18:01:27.959Z,27.50
2022-08-24T18:03:55.374Z,27.40
2022-08-24T18:06:24.499Z,27.30
2022-08-24T18:08:51.861Z,27.20
2022-08-24T18:11:21.601Z,27.20
2022-08-24T18:13:51.235Z,27.10
2022-08-24T18:16:22.097Z,27.00
2022-08-24T18:18:52.039Z,26.90
2022-08-24T18:21:20.192Z,26.80
2022-08-24T18:23:48.411Z,26.80
2022-08-24T18:26:20.735Z,26.70
2022-08-24T18:28:52.616Z,26.60
2022-08-24T18:31:22.503Z,26.60
2022-08-24T18:33:50.881Z,26.50
2022-08-24T18:36:17.820Z,26.40
2022-08-24T18:38:44.729Z,26.40
2022-08-24T18:41:12.219Z,26.30
2022-08-24T18:43:39.208Z,26.30
2022-08-24T18:46:07.044Z,26.20
2022-08-24T18:48:33.993Z,26.20
2022-08-24T18:51:02.557Z,26.20
2022-08-24T18:53:29.767Z,26.10
2022-08-24T18:55:56.810Z,26.10
2022-08-24T18:58:23.775Z,26.00
2022-08-24T19:00:51.594Z,25.90
2022-08-24T19:03:19.779Z,25.70
2022-08-24T19:05:47.308Z,25.60
2022-08-24T19:08:15.590Z,25.50
2022-08-24T19:10:42.566Z,25.40
2022-08-24T19:13:15.296Z,25.40
2022-08-24T19:15:42.779Z,25.30
2022-08-24T19:18:13.584Z,25.20
2022-08-24T19:20:47.740Z,25.20
2022-08-24T19:23:20.206Z,25.20
2022-08-24T19:25:48.072Z,25.20
2022-08-24T19:28:15.624Z,25.20
2022-08-24T19:30:44.536Z,25.10
2022-08-24T19:33:14.432Z,25.20
2022-08-24T19:35:41.887Z,25.10
2022-08-24T19:38:08.968Z,25.10
2022-08-24T19:40:39.189Z,25.10
2022-08-24T19:43:08.531Z,25.10
2022-08-24T19:45:54.325Z,25.00
2022-08-24T19:48:23.271Z,25.00
2022-08-24T19:50:51.244Z,24.90
2022-08-24T19:53:18.263Z,24.90
2022-08-24T19:55:50.081Z,24.80
2022-08-24T19:58:23.599Z,24.80
2022-08-24T20:00:56.627Z,24.70
2022-08-24T20:03:24.027Z,24.70
2022-08-24T20:05:51.301Z,24.60
2022-08-24T20:08:19.548Z,24.60
2022-08-24T20:10:48.406Z,24.60
2022-08-24T20:13:15.351Z,24.50
2022-08-24T20:15:43.012Z,24.40
2022-08-24T20:18:10.550Z,24.40
2022-08-24T20:20:37.545Z,24.50
2022-08-24T20:23:06.440Z,24.50
2022-08-24T20:25:35.086Z,24.50
2022-08-24T20:28:28.411Z,24.50
2022-08-24T20:30:52.444Z,24.50
2022-08-24T20:33:23.699Z,24.40
2022-08-24T20:35:50.734Z,24.30
2022-08-24T20:38:20.492Z,24.20
2022-08-24T20:40:48.514Z,24.10
2022-08-24T20:43:17.024Z,24.10
2022-08-24T20:45:44.399Z,24.10
2022-08-24T20:48:13.160Z,24.00
2022-08-24T20:50:43.766Z,24.00
2022-08-24T20:53:11.405Z,23.90
2022-08-24T20:55:38.991Z,23.80
2022-08-24T20:58:05.968Z,23.70
2022-08-24T21:00:34.514Z,23.70
2022-08-24T21:03:01.537Z,23.60
2022-08-24T21:05:28.599Z,23.50
2022-08-24T21:07:57.763Z,23.50
2022-08-24T21:10:26.639Z,23.40
2022-08-24T21:12:54.231Z,23.30
2022-08-24T21:15:23.126Z,23.40
2022-08-24T21:17:51.527Z,23.40
2022-08-24T21:20:19.226Z,23.40
2022-08-24T21:22:46.253Z,23.30
2022-08-24T21:25:14.658Z,23.30
2022-08-24T21:27:44.084Z,23.30
2022-08-24T21:30:14.300Z,23.30
2022-08-24T21:32:59.915Z,23.20
2022-08-24T21:35:28.252Z,23.20
2022-08-24T21:37:56.219Z,23.10
2022-08-24T21:40:23.633Z,23.10
2022-08-24T21:42:51.528Z,23.00
2022-08-24T21:45:19.089Z,23.00
2022-08-24T21:47:46.300Z,22.90
2022-08-24T21:50:14.807Z,22.90
2022-08-24T21:52:43.203Z,22.80
2022-08-24T21:55:14.781Z,22.80
2022-08-24T21:57:42.107Z,22.80
2022-08-24T22:00:13.279Z,22.70
2022-08-24T22:02:40.250Z,22.70
2022-08-24T22:05:07.998Z,22.70
2022-08-24T22:07:34.945Z,22.60
2022-08-24T22:10:04.116Z,22.60
2022-08-24T22:12:31.019Z,22.50
2022-08-24T22:14:57.967Z,22.50
2022-08-24T22:17:24.883Z,22.40
2022-08-24T22:19:51.847Z,22.30
2022-08-24T22:22:18.742Z,22.30
2022-08-24T22:24:45.647Z,22.30
2022-08-24T22:27:14.084Z,22.30
2022-08-24T22:29:41.055Z,22.30
2022-08-24T22:32:08.003Z,22.30
2022-08-24T22:34:36.501Z,22.20
2022-08-24T22:37:04.508Z,22.20
2022-08-24T22:39:31.675Z,22.00
2022-08-24T22:41:58.588Z,22.00
2022-08-24T22:44:27.762Z,21.90
2022-08-24T22:46:56.563Z,21.80
2022-08-24T22:49:26.014Z,21.80
2022-08-24T22:51:53.296Z,21.70
2022-08-24T22:54:21.387Z,21.70
2022-08-24T22:56:51.659Z,21.70
2022-08-24T22:59:21.777Z,21.70
2022-08-24T23:01:52.275Z,21.70
2022-08-24T23:04:23.538Z,21.70
2022-08-24T23:06:50.607Z,21.70
2022-08-24T23:09:18.064Z,21.80
2022-08-24T23:11:45.420Z,21.70
2022-08-24T23:14:13.423Z,21.70
2022-08-24T23:16:44.884Z,21.70
2022-08-24T23:19:32.126Z,21.70
2022-08-24T23:21:59.072Z,21.70
2022-08-24T23:24:26.018Z,21.70
2022-08-24T23:26:53.011Z,21.60
2022-08-24T23:29:21.239Z,21.50
2022-08-24T23:31:48.829Z,21.40
2022-08-24T23:34:17.210Z,21.30
2022-08-24T23:36:44.335Z,21.30
2022-08-24T23:39:11.986Z,21.20
2022-08-24T23:41:42.583Z,21.20
2022-08-24T23:44:12.550Z,21.20
2022-08-24T23:46:40.344Z,21.10
2022-08-24T23:49:08.024Z,21.10
2022-08-24T23:51:36.656Z,21.10
2022-08-24T23:54:04.581Z,21.10
2022-08-24T23:56:35.564Z,21.00
2022-08-24T23:59:06.422Z,21.00
